• Join FlightAware (Why Join?)
  • Login
  • US Flag 
11:11AM EDT


 

Airport Tracker/Info


-or-


 

Live Flight TrackerFlight Track Log ✈ VNR104 ✈ 11-May-2013 ✈ KLRU - KYIP

Flight Track Log - Related Links

Times and Time Zones

All times are in EDT time to prevent confusion due to time zone crossing. See the VNR104 flight status page for this flight to view local times or setup timezone preferences in your user account.

Time Position Orientation Groundspeed Altitude Reporting Facility
EDT Latitude Longitude Course Direction KTS MPH feet Rate Location/Type
11:33AM 32.2744 -106.9556 139° Southeast 199 229 7,200  Level Albuquerque Center
11:34AM 32.2331 -106.9183 143° Southeast 190 219 9,600 2,040 Climbing Albuquerque Center
11:35AM 32.1914 -106.8717 137° Southeast 196 226 11,400 1,800 Climbing Albuquerque Center
11:36AM 32.1439 -106.8164 135° Southeast 235 270 13,400 1,920 Climbing Albuquerque Center
11:37AM 32.0972 -106.7636 136° Southeast 234 269 15,400 2,040 Climbing Albuquerque Center
11:38AM 32.0533 -106.6867 124° Southeast 242 278 17,700 1,860 Climbing Albuquerque Center
11:39AM 32.0344 -106.6083 106° East 248 285 19,300 1,800 Climbing Albuquerque Center
11:40AM 32.0139 -106.5286 107° East 254 292 21,400 1,980 Climbing Albuquerque Center
11:41AM 31.9944 -106.4469 106° East 259 298 23,400 1,740 Climbing Albuquerque Center
11:42AM 31.9742 -106.3636 106° East 264 304 25,100 1,500 Climbing Albuquerque Center
11:43AM 31.9528 -106.2775 106° East 273 314 26,500 1,380 Climbing Albuquerque Center
11:44AM 31.9564 -106.1889 87° East 273 314 28,000 1,500 Climbing Albuquerque Center
11:45AM 31.9636 -106.0811 85° East 276 318 29,600 1,320 Climbing Albuquerque Center
11:46AM 31.9692 -105.9917 86° East 274 315 30,800 1,080 Climbing Albuquerque Center
11:47AM 31.9736 -105.9092 86° East 277 319 31,900 960 Climbing Albuquerque Center
11:48AM 31.9789 -105.8189 86° East 276 318 32,900 780 Climbing Albuquerque Center
11:49AM 32.0036 -105.7139 74° East 283 326 33,500 480 Climbing Albuquerque Center
11:50AM 32.0492 -105.6319 57° Northeast 298 343 34,000 480 Climbing Albuquerque Center
11:52AM 32.0942 -105.5492 57° Northeast 300 345 34,500 480 Climbing Albuquerque Center
11:53AM 32.1433 -105.4653 55° Northeast 308 354 35,100 480 Climbing Albuquerque Center
11:54AM 32.1939 -105.3811 55° Northeast 312 359 35,600 480 Climbing Albuquerque Center
11:55AM 32.2444 -105.2964 55° Northeast 315 362 36,100 480 Climbing Albuquerque Center
11:56AM 32.2947 -105.2114 55° Northeast 314 361 36,600 420 Climbing Albuquerque Center
11:57AM 32.3433 -105.1258 56° Northeast 314 361 37,000 180 Climbing Albuquerque Center
11:58AM 32.4056 -105.0214 55° Northeast 317 365 37,000  Level Albuquerque Center
11:59AM 32.4581 -104.9242 57° Northeast 341 392 37,000  Level Albuquerque Center
12:00PM 32.5164 -104.8217 56° Northeast 349 402 37,000  Level Albuquerque Center
12:01PM 32.5725 -104.7258 55° Northeast 353 406 37,000  Level Albuquerque Center
12:02PM 32.6292 -104.6306 55° Northeast 355 409 37,000  Level Albuquerque Center
12:03PM 32.6858 -104.5317 56° Northeast 362 417 37,000  Level Albuquerque Center
12:04PM 32.7475 -104.4247 56° Northeast 365 420 37,000  Level Albuquerque Center
12:05PM 32.8053 -104.3244 56° Northeast 369 425 37,000  Level Albuquerque Center
12:06PM 32.8667 -104.2167 56° Northeast 368 423 37,000  Level Albuquerque Center
12:07PM 32.9239 -104.1175 55° Northeast 367 422 37,000  Level Albuquerque Center
12:08PM 32.9814 -104.0167 56° Northeast 368 423 37,000  Level Albuquerque Center
12:09PM 33.0425 -103.9103 56° Northeast 365 420 37,000  Level Albuquerque Center
12:10PM 33.0992 -103.8117 56° Northeast 362 417 37,000  Level Albuquerque Center
12:11PM 33.1556 -103.7125 56° Northeast 363 418 37,000  Level Albuquerque Center
12:12PM 33.2072 -103.6172 57° Northeast 352 405 37,000  Level Albuquerque Center
12:13PM 33.2622 -103.5181 56° Northeast 354 407 37,000  Level Albuquerque Center
12:14PM 33.3189 -103.4178 56° Northeast 360 414 37,000  Level Albuquerque Center
12:15PM 33.3736 -103.3192 56° Northeast 358 412 37,000  Level Albuquerque Center
12:16PM 33.4292 -103.2200 56° Northeast 358 412 37,000  Level Albuquerque Center
12:17PM 33.4836 -103.1217 56° Northeast 356 410 37,000  Level Albuquerque Center
12:18PM 33.5492 -103.0047 56° Northeast 353 406 37,000  Level Albuquerque Center
12:19PM 33.6039 -102.9047 57° Northeast 355 409 37,000  Level Albuquerque Center
12:20PM 33.6472 -102.8261 56° Northeast 355 409 37,000  Level Albuquerque Center
12:21PM 33.7014 -102.7267 57° Northeast 355 409 37,000  Level Albuquerque Center
12:22PM 33.7561 -102.6267 57° Northeast 358 412 37,000  Level Albuquerque Center
12:23PM 33.7922 -102.5517 60° Northeast 351 404 37,000  Level Fort Worth Center
12:24PM 33.8481 -102.4650 52° Northeast 356 410 37,000  Level Fort Worth Center
12:25PM 33.9044 -102.3558 58° Northeast 356 410 37,000  Level Fort Worth Center
12:26PM 33.9539 -102.2658 56° Northeast 356 410 37,000  Level Fort Worth Center
12:27PM 34.0125 -102.1564 57° Northeast 357 411 37,000  Level Fort Worth Center
12:28PM 34.0597 -102.0639 58° Northeast 357 411 37,000  Level Fort Worth Center
12:29PM 34.1178 -101.9592 56° Northeast 357 411 37,000  Level Fort Worth Center
12:30PM 34.1714 -101.8589 57° Northeast 357 411 37,000  Level Fort Worth Center
12:31PM 34.2250 -101.7589 57° Northeast 357 411 37,000  Level Fort Worth Center
12:32PM 34.2786 -101.6608 56° Northeast 357 411 37,000  Level Fort Worth Center
12:33PM 34.3300 -101.5578 59° Northeast 357 411 37,000  Level Fort Worth Center
12:34PM 34.4136 -101.3989 57° Northeast 352 405 37,000  Level Albuquerque Center
12:35PM 34.4664 -101.3017 57° Northeast 350 403 37,000  Level Albuquerque Center
12:36PM 34.5183 -101.2019 58° Northeast 351 404 37,000  Level Albuquerque Center
12:37PM 34.5808 -101.0817 58° Northeast 352 405 37,000  Level Albuquerque Center
12:39PM 34.6333 -100.9825 57° Northeast 352 405 37,000  Level Albuquerque Center
12:40PM 34.6853 -100.8831 58° Northeast 352 405 37,000  Level Albuquerque Center
12:41PM 34.7367 -100.7833 58° Northeast 351 404 37,000  Level Albuquerque Center
12:42PM 34.7892 -100.6833 57° Northeast 352 405 37,000  Level Albuquerque Center
12:43PM 34.8414 -100.5825 58° Northeast 354 407 37,000  Level Albuquerque Center
12:44PM 34.9047 -100.4603 58° Northeast 356 410 37,000  Level Albuquerque Center
12:45PM 34.9517 -100.3667 59° Northeast 359 413 37,000  Level Albuquerque Center
12:46PM 35.0044 -100.2631 58° Northeast 359 413 37,000  Level Albuquerque Center
12:47PM 35.0572 -100.1594 58° Northeast 359 413 37,000  Level Albuquerque Center
12:48PM 35.1214 -100.0353 58° Northeast 360 414 37,000  Level Albuquerque Center
12:49PM 35.1731 -99.9325 58° Northeast 356 410 37,000  Level Albuquerque Center
12:50PM 35.2256 -99.8292 58° Northeast 356 410 37,000  Level Albuquerque Center
12:51PM 35.2781 -99.7267 58° Northeast 356 410 37,000  Level Albuquerque Center
12:52PM 35.3292 -99.6225 59° Northeast 357 411 37,000  Level Albuquerque Center
12:53PM 35.3808 -99.5183 59° Northeast 357 411 37,000  Level Albuquerque Center
12:55PM 35.4628 -99.3553 58° Northeast 353 406 37,000  Level Kansas City Center
12:56PM 35.5142 -99.2522 58° Northeast 354 407 37,000  Level Kansas City Center
12:57PM 35.5742 -99.1300 59° Northeast 350 403 37,000  Level Kansas City Center
12:58PM 35.6244 -99.0283 59° Northeast 349 402 37,000  Level Kansas City Center
12:59PM 35.6744 -98.9272 59° Northeast 349 402 37,000  Level Kansas City Center
01:00PM 35.7250 -98.8244 59° Northeast 352 405 37,000  Level Kansas City Center
01:01PM 35.7736 -98.7244 59° Northeast 351 404 37,000  Level Kansas City Center
01:02PM 35.8256 -98.6192 59° Northeast 351 404 37,000  Level Kansas City Center
01:03PM 35.8861 -98.4947 59° Northeast 352 405 37,000  Level Kansas City Center
01:04PM 35.9361 -98.3922 59° Northeast 350 403 37,000  Level Kansas City Center
01:05PM 35.9867 -98.2878 59° Northeast 353 406 37,000  Level Kansas City Center
01:06PM 36.0369 -98.1836 59° Northeast 353 406 37,000  Level Kansas City Center
01:07PM 36.0872 -98.0800 59° Northeast 352 405 37,000  Level Kansas City Center
01:08PM 36.1361 -97.9772 59° Northeast 351 404 37,000  Level Kansas City Center
01:09PM 36.1858 -97.8719 60° Northeast 353 406 37,000  Level Kansas City Center
01:10PM 36.2456 -97.7472 59° Northeast 351 404 37,000  Level Kansas City Center
01:11PM 36.2956 -97.6431 59° Northeast 351 404 37,000  Level Kansas City Center
01:12PM 36.3453 -97.5378 60° Northeast 352 405 37,000  Level Kansas City Center
01:13PM 36.3953 -97.4303 60° Northeast 357 411 37,000  Level Kansas City Center
01:14PM 36.4447 -97.3242 60° Northeast 355 409 37,000  Level Kansas City Center
01:15PM 36.4950 -97.2197 59° Northeast 353 406 37,000  Level Kansas City Center
01:16PM 36.5444 -97.1122 60° Northeast 356 410 37,000  Level Kansas City Center
01:17PM 36.6008 -96.9919 60° Northeast 357 411 37,000  Level Kansas City Center
01:18PM 36.6508 -96.8836 60° Northeast 358 412 37,000  Level Kansas City Center
01:19PM 36.7011 -96.7761 60° Northeast 358 412 37,000  Level Kansas City Center
01:20PM 36.7511 -96.6675 60° Northeast 359 413 37,000  Level Kansas City Center
01:21PM 36.8000 -96.5589 61° Northeast 359 413 37,000  Level Kansas City Center
01:22PM 36.8606 -96.4275 60° Northeast 361 415 37,000  Level Kansas City Center
01:23PM 36.9094 -96.3175 61° Northeast 361 415 37,000  Level Kansas City Center
01:24PM 36.9600 -96.2067 60° Northeast 363 418 37,000  Level Kansas City Center
01:25PM 37.0106 -96.0969 60° Northeast 363 418 37,000  Level Kansas City Center
01:26PM 37.0597 -95.9856 61° Northeast 363 418 37,000  Level Kansas City Center
01:28PM 37.1100 -95.8747 60° Northeast 364 419 37,000  Level Kansas City Center
01:29PM 37.1594 -95.7644 61° Northeast 362 417 37,000  Level Kansas City Center
01:30PM 37.2092 -95.6531 61° Northeast 363 418 37,000  Level Kansas City Center
01:31PM 37.2692 -95.5181 61° Northeast 366 421 37,000  Level Kansas City Center
01:32PM 37.3186 -95.4072 61° Northeast 364 419 37,000  Level Kansas City Center
01:33PM 37.3678 -95.2964 61° Northeast 362 417 37,000  Level Kansas City Center
01:34PM 37.4178 -95.1847 61° Northeast 365 420 37,000  Level Kansas City Center
01:35PM 37.4672 -95.0728 61° Northeast 364 419 37,000  Level Kansas City Center
01:36PM 37.5175 -94.9586 61° Northeast 369 425 37,000  Level Kansas City Center
01:37PM 37.5669 -94.8439 61° Northeast 370 426 37,000  Level Kansas City Center
01:38PM 37.6253 -94.7053 62° Northeast 372 428 37,000  Level Kansas City Center
01:39PM 37.6764 -94.5900 61° Northeast 371 427 37,000  Level Kansas City Center
01:40PM 37.7233 -94.4800 62° Northeast 372 428 37,000  Level Kansas City Center
01:41PM 37.7717 -94.3692 61° Northeast 372 428 37,000  Level Kansas City Center
01:42PM 37.8211 -94.2536 62° Northeast 373 429 37,000  Level Kansas City Center
01:43PM 37.8806 -94.1128 62° Northeast 375 432 37,000  Level Kansas City Center
01:45PM 37.9808 -93.8767 62° Northeast 379 436 37,000  Level Kansas City Center
01:46PM 38.0300 -93.7564 63° Northeast 381 438 37,000  Level Kansas City Center
01:47PM 38.0817 -93.6364 61° Northeast 385 443 37,000  Level Kansas City Center
01:48PM 38.1314 -93.5164 62° Northeast 383 441 37,000  Level Kansas City Center
01:49PM 38.1811 -93.3964 62° Northeast 382 440 37,000  Level Kansas City Center
01:50PM 38.2319 -93.2761 62° Northeast 383 441 37,000  Level Kansas City Center
01:51PM 38.2922 -93.1294 62° Northeast 386 444 37,000  Level Kansas City Center
01:52PM 38.3442 -93.0072 62° Northeast 388 447 37,000  Level Kansas City Center
01:53PM 38.3936 -92.8847 63° Northeast 388 447 37,000  Level Kansas City Center
01:54PM 38.4442 -92.7606 63° Northeast 389 448 37,000  Level Kansas City Center
01:55PM 38.4942 -92.6367 63° Northeast 390 449 37,000  Level Kansas City Center
01:56PM 38.5442 -92.5147 62° Northeast 387 445 37,000  Level Kansas City Center
01:57PM 38.5933 -92.3903 63° Northeast 387 445 37,000  Level Kansas City Center
01:58PM 38.6442 -92.2636 63° Northeast 391 450 37,000  Level Kansas City Center
02:00PM 38.7042 -92.1131 63° Northeast 393 452 37,000  Level Kansas City Center
02:01PM 38.7544 -91.9856 63° Northeast 396 456 37,000  Level Kansas City Center
02:02PM 38.8039 -91.8600 63° Northeast 395 455 37,000  Level Kansas City Center
02:03PM 38.8542 -91.7322 63° Northeast 398 458 37,000  Level Kansas City Center
02:04PM 38.9028 -91.6111 63° Northeast 397 457 37,000  Level Kansas City Center
02:05PM 38.9522 -91.4828 64° Northeast 400 460 37,000  Level Kansas City Center
02:06PM 39.0025 -91.3556 63° Northeast 400 460 37,000  Level Kansas City Center
02:07PM 39.0619 -91.2017 64° Northeast 400 460 37,000  Level Kansas City Center
02:08PM 39.1136 -91.0728 63° Northeast 403 464 37,000  Level Kansas City Center
02:09PM 39.1625 -90.9425 64° Northeast 404 465 37,000  Level Kansas City Center
02:10PM 39.2122 -90.8139 63° Northeast 402 463 37,000  Level Kansas City Center
02:11PM 39.2633 -90.6806 64° Northeast 409 471 37,000  Level Kansas City Center
02:12PM 39.3136 -90.5486 64° Northeast 409 471 37,000  Level Kansas City Center
02:13PM 39.3644 -90.4169 63° Northeast 409 471 37,000  Level Kansas City Center
02:14PM 39.4136 -90.2847 64° Northeast 408 470 37,000  Level Kansas City Center
02:15PM 39.4728 -90.1253 64° Northeast 408 470 37,000  Level Kansas City Center
02:16PM 39.5219 -89.9911 65° Northeast 411 473 37,000  Level Kansas City Center
02:17PM 39.5711 -89.8586 64° Northeast 410 472 37,000  Level Kansas City Center
02:18PM 39.6208 -89.7253 64° Northeast 410 472 37,000  Level Kansas City Center
02:19PM 39.6700 -89.5900 65° Northeast 413 475 37,000  Level Kansas City Center
02:20PM 39.7175 -89.4597 65° Northeast 414 476 37,000  Level Kansas City Center
02:21PM 39.7772 -89.2981 64° Northeast 414 476 37,000  Level Kansas City Center
02:22PM 39.8261 -89.1619 65° Northeast 415 478 37,000  Level Kansas City Center
02:23PM 39.8756 -89.0267 64° Northeast 416 479 37,000  Level Kansas City Center
02:24PM 39.9239 -88.8908 65° Northeast 416 479 37,000  Level Kansas City Center
02:25PM 39.9725 -88.7550 65° Northeast 415 478 37,000  Level Kansas City Center
02:26PM 40.0211 -88.6156 65° Northeast 420 483 37,000  Level Kansas City Center
02:27PM 40.0714 -88.4778 64° Northeast 416 479 37,000  Level Kansas City Center
02:28PM 40.1167 -88.3436 66° East 417 480 37,000  Level Chicago Center
02:29PM 40.1650 -88.2056 65° Northeast 419 482 37,000  Level Chicago Center
02:30PM 40.2164 -88.0608 65° Northeast 416 479 37,000  Level Chicago Center
02:31PM 40.2650 -87.9231 65° Northeast 420 483 37,000  Level Chicago Center
02:32PM 40.3111 -87.7861 66° East 416 479 37,000  Level Chicago Center
02:33PM 40.3683 -87.6208 66° East 419 482 37,000  Level Chicago Center
02:34PM 40.4161 -87.4847 65° Northeast 417 480 37,000  Level Chicago Center
02:35PM 40.4617 -87.3500 66° East 409 471 37,000 -60 Level Chicago Center
02:36PM 40.5089 -87.2114 66° East 418 481 36,900 -480 Descending Chicago Center
02:37PM 40.5658 -87.0506 65° Northeast 429 494 36,100 -780 Descending Chicago Center
02:39PM 40.6350 -86.9150 56° Northeast 446 513 35,400 -780 Descending Chicago Center
02:40PM 40.7069 -86.7711 57° Northeast 450 518 34,600 -720 Descending Chicago Center
02:41PM 40.7722 -86.6419 56° Northeast 446 513 34,000 -720 Descending Chicago Center
02:42PM 40.8403 -86.5039 57° Northeast 447 514 33,200 -780 Descending Chicago Center
02:43PM 40.9094 -86.3656 56° Northeast 451 519 32,500 -720 Descending Chicago Center
02:44PM 40.9789 -86.2256 57° Northeast 456 525 31,800 -720 Descending Chicago Center
02:45PM 41.0475 -86.0825 58° Northeast 459 528 31,100 -960 Descending Chicago Center
02:46PM 41.1317 -85.9125 57° Northeast 462 532 29,900 -1,920 Descending Chicago Center
02:47PM 41.1986 -85.7725 58° Northeast 457 526 27,200 -2,640 Descending Chicago Center
02:48PM 41.2658 -85.6342 57° Northeast 450 518 24,600 -2,100 Descending Chicago Center
02:49PM 41.3286 -85.5036 57° Northeast 424 488 22,900 -1,560 Descending Chicago Center
02:50PM 41.3897 -85.3764 57° Northeast 412 474 21,400 -960 Descending Chicago Center
02:51PM 41.4628 -85.2253 57° Northeast 412 474 21,000 -240 Descending Chicago Center
02:52PM 41.5206 -85.1022 58° Northeast 401 461 21,000 -120 Level Chicago Center
02:53PM 41.5806 -84.9783 57° Northeast 400 460 20,800 -600 Descending Chicago Center
02:54PM 41.6389 -84.8542 58° Northeast 399 459 19,800 -1,080 Descending Chicago Center
02:54PM 41.6633 -84.8031 57° Northeast 400 460 19,400 -1,140 Descending Cleveland Center
02:55PM 41.7197 -84.6869 57° Northeast 388 447 18,300 -1,200 Descending Cleveland Center
02:56PM 41.7739 -84.5678 59° Northeast 377 434 17,000 -2,160 Descending Cleveland Center
02:57PM 41.8300 -84.4514 57° Northeast 377 434 14,000 -3,000 Descending Cleveland Center
02:58PM 41.8772 -84.3511 58° Northeast 348 400 11,000 -2,880 Descending Cleveland Center
02:59PM 41.8864 -84.3264 64° Northeast 309 356 10,400 -1,620 Descending Cleveland Center
02:59PM 41.9156 -84.2611 59° Northeast 317 365 9,400 -1,740 Descending Cleveland Center
03:00PM 41.9603 -84.1633 58° Northeast 301 346 7,400 -1,740 Descending Cleveland Center
03:01PM 42.0150 -84.0825 48° Northeast 280 322 6,000 -1,200 Descending Cleveland Center
03:02PM 42.0694 -84.0069 46° Northeast 269 310 5,000 -960 Descending Cleveland Center
03:03PM 42.1194 -83.9397 45° Northeast 269 310 4,100 -540 Descending Cleveland Center
03:04PM 42.1714 -83.8697 45° Northeast 267 307 4,000 -60 Descending Cleveland Center
03:05PM 42.2197 -83.7853 52° Northeast 269 310 4,000 -60 Level Cleveland Center
03:06PM 42.2656 -83.7033 53° Northeast 271 312 3,900 -480 Descending Cleveland Center
03:07PM 42.2744 -83.6139 82° East 220 253 3,100 -840 Descending Cleveland Center
03:08PM 42.2867 -83.5386 78° East 183 211 2,300 -900 Descending Cleveland Center
03:09PM 42.2625 -83.5094 138° Southeast 120 138 1,300 -1,020 Descending Cleveland Center